sensor_id;sensor_type;location;lat;lon;timestamp;P1;durP1;ratioP1;P2;durP2;ratioP2
11113;SDS011;5610;52.154;9.198;2023-11-19T00:00:00;1.97;;;1.87;;
11113;SDS011;5610;52.154;9.198;2023-11-19T00:02:45;2.20;;;2.00;;
11113;SDS011;5610;52.154;9.198;2023-11-19T00:05:31;2.00;;;1.90;;
11113;SDS011;5610;52.154;9.198;2023-11-19T00:08:17;1.60;;;1.50;;
11113;SDS011;5610;52.154;9.198;2023-11-19T00:11:03;1.63;;;1.53;;
11113;SDS011;5610;52.154;9.198;2023-11-19T00:13:48;1.80;;;1.70;;
11113;SDS011;5610;52.154;9.198;2023-11-19T00:16:33;1.50;;;1.40;;
11113;SDS011;5610;52.154;9.198;2023-11-19T00:19:19;1.60;;;1.50;;
11113;SDS011;5610;52.154;9.198;2023-11-19T00:22:04;1.67;;;1.57;;
11113;SDS011;5610;52.154;9.198;2023-11-19T00:24:51;1.13;;;1.13;;
11113;SDS011;5610;52.154;9.198;2023-11-19T00:27:36;1.00;;;1.00;;
11113;SDS011;5610;52.154;9.198;2023-11-19T00:30:21;1.53;;;1.43;;
11113;SDS011;5610;52.154;9.198;2023-11-19T00:33:06;3.13;;;2.23;;
11113;SDS011;5610;52.154;9.198;2023-11-19T00:35:52;2.00;;;1.90;;
11113;SDS011;5610;52.154;9.198;2023-11-19T00:38:37;1.73;;;1.63;;
11113;SDS011;5610;52.154;9.198;2023-11-19T00:41:24;3.33;;;1.80;;
11113;SDS011;5610;52.154;9.198;2023-11-19T00:44:10;1.60;;;1.50;;
11113;SDS011;5610;52.154;9.198;2023-11-19T00:46:55;1.40;;;1.30;;
11113;SDS011;5610;52.154;9.198;2023-11-19T00:49:40;1.50;;;1.40;;
11113;SDS011;5610;52.154;9.198;2023-11-19T00:52:27;1.77;;;1.40;;
11113;SDS011;5610;52.154;9.198;2023-11-19T00:55:12;1.33;;;1.23;;
11113;SDS011;5610;52.154;9.198;2023-11-19T00:57:59;1.00;;;1.00;;
11113;SDS011;5610;52.154;9.198;2023-11-19T01:00:44;1.30;;;1.20;;
11113;SDS011;5610;52.154;9.198;2023-11-19T01:03:29;0.87;;;0.87;;
11113;SDS011;5610;52.154;9.198;2023-11-19T01:06:26;1.00;;;1.00;;
11113;SDS011;5610;52.154;9.198;2023-11-19T01:09:12;0.63;;;0.63;;
11113;SDS011;5610;52.154;9.198;2023-11-19T01:11:57;1.00;;;0.70;;
11113;SDS011;5610;52.154;9.198;2023-11-19T01:14:46;0.60;;;0.60;;
11113;SDS011;5610;52.154;9.198;2023-11-19T01:17:31;0.70;;;0.70;;
11113;SDS011;5610;52.154;9.198;2023-11-19T01:20:16;0.60;;;0.60;;
11113;SDS011;5610;52.154;9.198;2023-11-19T01:23:01;0.53;;;0.53;;
11113;SDS011;5610;52.154;9.198;2023-11-19T01:25:46;0.60;;;0.60;;
11113;SDS011;5610;52.154;9.198;2023-11-19T01:28:32;0.60;;;0.60;;
11113;SDS011;5610;52.154;9.198;2023-11-19T01:31:19;0.70;;;0.57;;
11113;SDS011;5610;52.154;9.198;2023-11-19T01:34:04;1.43;;;0.70;;
11113;SDS011;5610;52.154;9.198;2023-11-19T01:36:50;0.93;;;0.80;;
11113;SDS011;5610;52.154;9.198;2023-11-19T01:39:35;0.60;;;0.60;;
11113;SDS011;5610;52.154;9.198;2023-11-19T01:42:20;0.70;;;0.70;;
11113;SDS011;5610;52.154;9.198;2023-11-19T01:45:06;0.80;;;0.80;;
11113;SDS011;5610;52.154;9.198;2023-11-19T01:47:54;0.70;;;0.70;;
11113;SDS011;5610;52.154;9.198;2023-11-19T01:50:40;0.97;;;0.97;;
11113;SDS011;5610;52.154;9.198;2023-11-19T01:53:25;0.60;;;0.60;;
11113;SDS011;5610;52.154;9.198;2023-11-19T01:56:13;0.70;;;0.70;;
11113;SDS011;5610;52.154;9.198;2023-11-19T01:58:59;0.70;;;0.70;;
11113;SDS011;5610;52.154;9.198;2023-11-19T02:01:46;0.60;;;0.60;;
11113;SDS011;5610;52.154;9.198;2023-11-19T02:04:33;0.70;;;0.70;;
11113;SDS011;5610;52.154;9.198;2023-11-19T02:07:19;2.20;;;1.07;;
11113;SDS011;5610;52.154;9.198;2023-11-19T02:10:04;1.07;;;1.00;;
11113;SDS011;5610;52.154;9.198;2023-11-19T02:12:57;2.00;;;1.63;;
11113;SDS011;5610;52.154;9.198;2023-11-19T02:15:42;2.30;;;1.93;;
11113;SDS011;5610;52.154;9.198;2023-11-19T02:18:27;2.40;;;2.30;;
11113;SDS011;5610;52.154;9.198;2023-11-19T02:21:14;2.40;;;2.20;;
11113;SDS011;5610;52.154;9.198;2023-11-19T02:24:01;2.63;;;2.43;;
11113;SDS011;5610;52.154;9.198;2023-11-19T02:26:52;2.30;;;2.20;;
11113;SDS011;5610;52.154;9.198;2023-11-19T02:29:47;3.00;;;2.80;;
11113;SDS011;5610;52.154;9.198;2023-11-19T02:32:33;2.60;;;2.40;;
11113;SDS011;5610;52.154;9.198;2023-11-19T02:35:19;3.00;;;2.80;;
11113;SDS011;5610;52.154;9.198;2023-11-19T02:38:05;2.80;;;2.60;;
11113;SDS011;5610;52.154;9.198;2023-11-19T02:40:51;2.97;;;2.77;;
11113;SDS011;5610;52.154;9.198;2023-11-19T02:43:36;3.23;;;3.03;;
11113;SDS011;5610;52.154;9.198;2023-11-19T02:46:24;2.90;;;2.70;;
11113;SDS011;5610;52.154;9.198;2023-11-19T02:49:09;2.40;;;2.20;;
11113;SDS011;5610;52.154;9.198;2023-11-19T02:51:55;2.77;;;2.50;;
11113;SDS011;5610;52.154;9.198;2023-11-19T02:54:43;2.00;;;1.90;;
11113;SDS011;5610;52.154;9.198;2023-11-19T02:57:30;2.00;;;1.90;;
11113;SDS011;5610;52.154;9.198;2023-11-19T03:00:16;2.00;;;1.90;;
11113;SDS011;5610;52.154;9.198;2023-11-19T03:03:04;2.10;;;2.00;;
11113;SDS011;5610;52.154;9.198;2023-11-19T03:06:01;3.20;;;3.00;;
11113;SDS011;5610;52.154;9.198;2023-11-19T03:08:50;3.33;;;2.70;;
11113;SDS011;5610;52.154;9.198;2023-11-19T03:11:35;2.97;;;2.77;;
11113;SDS011;5610;52.154;9.198;2023-11-19T03:14:20;2.40;;;2.30;;
11113;SDS011;5610;52.154;9.198;2023-11-19T03:17:07;5.03;;;3.00;;
11113;SDS011;5610;52.154;9.198;2023-11-19T03:19:54;3.27;;;2.67;;
11113;SDS011;5610;52.154;9.198;2023-11-19T03:22:40;2.77;;;2.57;;
11113;SDS011;5610;52.154;9.198;2023-11-19T03:25:25;2.77;;;2.53;;
11113;SDS011;5610;52.154;9.198;2023-11-19T03:28:10;5.17;;;4.67;;
11113;SDS011;5610;52.154;9.198;2023-11-19T03:30:56;5.53;;;5.03;;
11113;SDS011;5610;52.154;9.198;2023-11-19T03:33:41;5.40;;;4.90;;
11113;SDS011;5610;52.154;9.198;2023-11-19T03:36:32;8.13;;;7.43;;
11113;SDS011;5610;52.154;9.198;2023-11-19T03:39:18;10.43;;;9.43;;
11113;SDS011;5610;52.154;9.198;2023-11-19T03:42:03;11.27;;;10.00;;
11113;SDS011;5610;52.154;9.198;2023-11-19T03:44:49;10.30;;;9.30;;
11113;SDS011;5610;52.154;9.198;2023-11-19T03:47:34;11.00;;;9.77;;
11113;SDS011;5610;52.154;9.198;2023-11-19T03:50:19;11.10;;;10.00;;
11113;SDS011;5610;52.154;9.198;2023-11-19T03:53:06;12.73;;;11.00;;
11113;SDS011;5610;52.154;9.198;2023-11-19T03:55:52;13.87;;;10.80;;
11113;SDS011;5610;52.154;9.198;2023-11-19T03:58:37;13.50;;;12.03;;
11113;SDS011;5610;52.154;9.198;2023-11-19T04:01:23;13.80;;;12.50;;
11113;SDS011;5610;52.154;9.198;2023-11-19T04:04:07;13.43;;;12.23;;
11113;SDS011;5610;52.154;9.198;2023-11-19T04:06:53;15.83;;;11.90;;
11113;SDS011;5610;52.154;9.198;2023-11-19T04:09:39;13.97;;;12.67;;
11113;SDS011;5610;52.154;9.198;2023-11-19T04:12:25;14.67;;;13.03;;
11113;SDS011;5610;52.154;9.198;2023-11-19T04:15:10;14.43;;;12.93;;
11113;SDS011;5610;52.154;9.198;2023-11-19T04:17:57;17.43;;;13.20;;
11113;SDS011;5610;52.154;9.198;2023-11-19T04:20:42;14.57;;;11.63;;
11113;SDS011;5610;52.154;9.198;2023-11-19T04:23:27;18.67;;;13.70;;
11113;SDS011;5610;52.154;9.198;2023-11-19T04:26:14;13.50;;;12.10;;
11113;SDS011;5610;52.154;9.198;2023-11-19T04:28:59;13.57;;;12.20;;
11113;SDS011;5610;52.154;9.198;2023-11-19T04:31:44;13.53;;;12.30;;
11113;SDS011;5610;52.154;9.198;2023-11-19T04:34:30;12.80;;;11.50;;
11113;SDS011;5610;52.154;9.198;2023-11-19T04:37:15;13.80;;;11.67;;
11113;SDS011;5610;52.154;9.198;2023-11-19T04:40:00;14.07;;;11.20;;
11113;SDS011;5610;52.154;9.198;2023-11-19T04:42:47;14.27;;;10.43;;
11113;SDS011;5610;52.154;9.198;2023-11-19T04:45:32;13.47;;;12.13;;
11113;SDS011;5610;52.154;9.198;2023-11-19T04:48:18;14.13;;;11.87;;
11113;SDS011;5610;52.154;9.198;2023-11-19T04:51:04;15.53;;;12.07;;
11113;SDS011;5610;52.154;9.198;2023-11-19T04:53:49;14.00;;;12.53;;
11113;SDS011;5610;52.154;9.198;2023-11-19T04:56:34;14.17;;;12.10;;
11113;SDS011;5610;52.154;9.198;2023-11-19T04:59:21;13.33;;;12.07;;
11113;SDS011;5610;52.154;9.198;2023-11-19T05:02:07;14.23;;;11.43;;
11113;SDS011;5610;52.154;9.198;2023-11-19T05:04:53;12.20;;;10.67;;
11113;SDS011;5610;52.154;9.198;2023-11-19T05:07:38;17.00;;;11.40;;
11113;SDS011;5610;52.154;9.198;2023-11-19T05:10:24;11.97;;;10.87;;
11113;SDS011;5610;52.154;9.198;2023-11-19T05:13:09;15.33;;;10.80;;
11113;SDS011;5610;52.154;9.198;2023-11-19T05:15:55;12.33;;;11.00;;
11113;SDS011;5610;52.154;9.198;2023-11-19T05:18:41;11.27;;;10.03;;
11113;SDS011;5610;52.154;9.198;2023-11-19T05:21:26;12.27;;;9.30;;
11113;SDS011;5610;52.154;9.198;2023-11-19T05:24:11;10.10;;;8.97;;
11113;SDS011;5610;52.154;9.198;2023-11-19T05:26:57;17.23;;;9.83;;
11113;SDS011;5610;52.154;9.198;2023-11-19T05:29:42;14.30;;;10.60;;
11113;SDS011;5610;52.154;9.198;2023-11-19T05:32:29;13.93;;;9.10;;
11113;SDS011;5610;52.154;9.198;2023-11-19T05:35:14;12.97;;;9.53;;
11113;SDS011;5610;52.154;9.198;2023-11-19T05:38:00;15.90;;;9.40;;
11113;SDS011;5610;52.154;9.198;2023-11-19T05:40:46;15.40;;;9.13;;
11113;SDS011;5610;52.154;9.198;2023-11-19T05:43:32;13.33;;;7.57;;
11113;SDS011;5610;52.154;9.198;2023-11-19T05:46:18;13.47;;;7.20;;
11113;SDS011;5610;52.154;9.198;2023-11-19T05:49:04;14.53;;;6.83;;
11113;SDS011;5610;52.154;9.198;2023-11-19T05:51:50;14.63;;;7.37;;
11113;SDS011;5610;52.154;9.198;2023-11-19T05:54:38;14.40;;;6.63;;
11113;SDS011;5610;52.154;9.198;2023-11-19T05:57:23;9.27;;;5.57;;
11113;SDS011;5610;52.154;9.198;2023-11-19T06:00:09;15.50;;;6.30;;
11113;SDS011;5610;52.154;9.198;2023-11-19T06:02:56;12.40;;;5.80;;
11113;SDS011;5610;52.154;9.198;2023-11-19T06:05:43;15.23;;;5.63;;
11113;SDS011;5610;52.154;9.198;2023-11-19T06:08:29;13.83;;;5.90;;
11113;SDS011;5610;52.154;9.198;2023-11-19T06:11:15;14.50;;;6.10;;
11113;SDS011;5610;52.154;9.198;2023-11-19T06:14:02;13.90;;;5.57;;
11113;SDS011;5610;52.154;9.198;2023-11-19T06:16:49;19.47;;;6.03;;
11113;SDS011;5610;52.154;9.198;2023-11-19T06:19:35;16.60;;;5.70;;
11113;SDS011;5610;52.154;9.198;2023-11-19T06:22:21;17.67;;;6.20;;
11113;SDS011;5610;52.154;9.198;2023-11-19T06:25:07;14.67;;;5.60;;
11113;SDS011;5610;52.154;9.198;2023-11-19T06:27:53;15.20;;;5.40;;
11113;SDS011;5610;52.154;9.198;2023-11-19T06:30:38;16.40;;;6.13;;
11113;SDS011;5610;52.154;9.198;2023-11-19T06:33:24;18.20;;;6.30;;
11113;SDS011;5610;52.154;9.198;2023-11-19T06:36:10;8.60;;;4.90;;
11113;SDS011;5610;52.154;9.198;2023-11-19T06:39:01;18.43;;;5.70;;
11113;SDS011;5610;52.154;9.198;2023-11-19T06:41:46;13.30;;;5.67;;
11113;SDS011;5610;52.154;9.198;2023-11-19T06:44:32;14.00;;;5.13;;
11113;SDS011;5610;52.154;9.198;2023-11-19T06:47:18;17.20;;;6.10;;
11113;SDS011;5610;52.154;9.198;2023-11-19T06:50:03;13.07;;;4.90;;
11113;SDS011;5610;52.154;9.198;2023-11-19T06:52:50;15.73;;;5.70;;
11113;SDS011;5610;52.154;9.198;2023-11-19T06:55:37;16.77;;;7.13;;
11113;SDS011;5610;52.154;9.198;2023-11-19T06:58:22;12.50;;;5.43;;
11113;SDS011;5610;52.154;9.198;2023-11-19T07:01:07;16.20;;;6.03;;
11113;SDS011;5610;52.154;9.198;2023-11-19T07:03:52;16.30;;;5.23;;
11113;SDS011;5610;52.154;9.198;2023-11-19T07:06:37;19.90;;;5.50;;
11113;SDS011;5610;52.154;9.198;2023-11-19T07:09:24;18.67;;;6.13;;
11113;SDS011;5610;52.154;9.198;2023-11-19T07:12:11;16.40;;;6.10;;
11113;SDS011;5610;52.154;9.198;2023-11-19T07:14:57;18.40;;;6.43;;
11113;SDS011;5610;52.154;9.198;2023-11-19T07:17:42;18.50;;;6.40;;
11113;SDS011;5610;52.154;9.198;2023-11-19T07:20:28;12.90;;;6.17;;
11113;SDS011;5610;52.154;9.198;2023-11-19T07:23:15;16.07;;;6.33;;
11113;SDS011;5610;52.154;9.198;2023-11-19T07:26:00;21.80;;;7.60;;
11113;SDS011;5610;52.154;9.198;2023-11-19T07:28:47;21.07;;;6.43;;
11113;SDS011;5610;52.154;9.198;2023-11-19T07:31:33;17.03;;;8.03;;
11113;SDS011;5610;52.154;9.198;2023-11-19T07:34:18;14.93;;;6.70;;
11113;SDS011;5610;52.154;9.198;2023-11-19T07:37:04;18.00;;;6.83;;
11113;SDS011;5610;52.154;9.198;2023-11-19T07:39:49;20.20;;;6.77;;
11113;SDS011;5610;52.154;9.198;2023-11-19T07:42:34;26.17;;;7.53;;
11113;SDS011;5610;52.154;9.198;2023-11-19T07:45:21;16.50;;;6.30;;
11113;SDS011;5610;52.154;9.198;2023-11-19T07:48:06;20.67;;;7.00;;
11113;SDS011;5610;52.154;9.198;2023-11-19T07:50:51;19.10;;;6.87;;
11113;SDS011;5610;52.154;9.198;2023-11-19T07:53:37;17.97;;;6.40;;
11113;SDS011;5610;52.154;9.198;2023-11-19T07:56:23;22.23;;;7.33;;
11113;SDS011;5610;52.154;9.198;2023-11-19T07:59:08;17.80;;;6.73;;
11113;SDS011;5610;52.154;9.198;2023-11-19T08:01:54;18.87;;;5.90;;
11113;SDS011;5610;52.154;9.198;2023-11-19T08:04:40;16.93;;;6.13;;
11113;SDS011;5610;52.154;9.198;2023-11-19T08:07:28;19.00;;;5.77;;
11113;SDS011;5610;52.154;9.198;2023-11-19T08:10:13;18.50;;;6.13;;
11113;SDS011;5610;52.154;9.198;2023-11-19T08:12:59;18.40;;;6.40;;
11113;SDS011;5610;52.154;9.198;2023-11-19T08:15:44;17.87;;;6.37;;
11113;SDS011;5610;52.154;9.198;2023-11-19T08:18:31;21.70;;;8.03;;
11113;SDS011;5610;52.154;9.198;2023-11-19T08:21:16;18.57;;;7.43;;
11113;SDS011;5610;52.154;9.198;2023-11-19T08:24:02;25.67;;;8.07;;
11113;SDS011;5610;52.154;9.198;2023-11-19T08:26:47;16.40;;;6.20;;
11113;SDS011;5610;52.154;9.198;2023-11-19T08:29:32;17.30;;;6.80;;
11113;SDS011;5610;52.154;9.198;2023-11-19T08:32:18;20.87;;;6.97;;
11113;SDS011;5610;52.154;9.198;2023-11-19T08:35:05;21.50;;;6.10;;
11113;SDS011;5610;52.154;9.198;2023-11-19T08:37:50;25.83;;;6.60;;
11113;SDS011;5610;52.154;9.198;2023-11-19T08:40:36;19.47;;;6.07;;
11113;SDS011;5610;52.154;9.198;2023-11-19T08:43:22;24.40;;;5.97;;
11113;SDS011;5610;52.154;9.198;2023-11-19T08:46:09;25.43;;;6.50;;
11113;SDS011;5610;52.154;9.198;2023-11-19T08:48:54;15.80;;;5.30;;
11113;SDS011;5610;52.154;9.198;2023-11-19T08:51:42;23.57;;;6.70;;
11113;SDS011;5610;52.154;9.198;2023-11-19T08:54:28;26.60;;;7.60;;
11113;SDS011;5610;52.154;9.198;2023-11-19T08:57:13;24.10;;;7.00;;
11113;SDS011;5610;52.154;9.198;2023-11-19T08:59:58;29.67;;;6.73;;
11113;SDS011;5610;52.154;9.198;2023-11-19T09:02:43;23.07;;;6.57;;
11113;SDS011;5610;52.154;9.198;2023-11-19T09:05:28;19.97;;;6.90;;
11113;SDS011;5610;52.154;9.198;2023-11-19T09:08:15;24.03;;;7.10;;
11113;SDS011;5610;52.154;9.198;2023-11-19T09:11:00;26.50;;;7.13;;
11113;SDS011;5610;52.154;9.198;2023-11-19T09:13:45;24.73;;;6.27;;
11113;SDS011;5610;52.154;9.198;2023-11-19T09:16:30;19.90;;;5.93;;
11113;SDS011;5610;52.154;9.198;2023-11-19T09:19:15;23.67;;;8.60;;
11113;SDS011;5610;52.154;9.198;2023-11-19T09:22:01;19.43;;;6.67;;
11113;SDS011;5610;52.154;9.198;2023-11-19T09:24:48;21.70;;;6.67;;
11113;SDS011;5610;52.154;9.198;2023-11-19T09:27:33;13.80;;;6.00;;
11113;SDS011;5610;52.154;9.198;2023-11-19T09:30:19;17.90;;;6.87;;
11113;SDS011;5610;52.154;9.198;2023-11-19T09:33:04;17.67;;;6.20;;
11113;SDS011;5610;52.154;9.198;2023-11-19T09:35:49;19.83;;;6.40;;
11113;SDS011;5610;52.154;9.198;2023-11-19T09:38:34;20.70;;;5.50;;
11113;SDS011;5610;52.154;9.198;2023-11-19T09:41:23;17.77;;;6.10;;
11113;SDS011;5610;52.154;9.198;2023-11-19T09:44:09;16.47;;;5.90;;
11113;SDS011;5610;52.154;9.198;2023-11-19T09:46:55;17.60;;;6.10;;
11113;SDS011;5610;52.154;9.198;2023-11-19T09:49:42;17.37;;;6.63;;
11113;SDS011;5610;52.154;9.198;2023-11-19T09:52:29;17.93;;;5.97;;
11113;SDS011;5610;52.154;9.198;2023-11-19T09:55:14;19.97;;;6.97;;
11113;SDS011;5610;52.154;9.198;2023-11-19T09:58:00;17.63;;;6.43;;
11113;SDS011;5610;52.154;9.198;2023-11-19T10:00:47;30.63;;;8.10;;
11113;SDS011;5610;52.154;9.198;2023-11-19T10:03:33;25.90;;;7.73;;
11113;SDS011;5610;52.154;9.198;2023-11-19T10:06:22;26.93;;;7.87;;
11113;SDS011;5610;52.154;9.198;2023-11-19T10:09:11;20.40;;;6.90;;
11113;SDS011;5610;52.154;9.198;2023-11-19T10:11:59;22.50;;;7.03;;
11113;SDS011;5610;52.154;9.198;2023-11-19T10:14:46;23.93;;;7.60;;
11113;SDS011;5610;52.154;9.198;2023-11-19T10:17:34;26.07;;;8.10;;
11113;SDS011;5610;52.154;9.198;2023-11-19T10:20:20;24.53;;;6.73;;
11113;SDS011;5610;52.154;9.198;2023-11-19T10:23:05;16.27;;;6.07;;
11113;SDS011;5610;52.154;9.198;2023-11-19T10:25:50;21.13;;;6.60;;
11113;SDS011;5610;52.154;9.198;2023-11-19T10:28:38;25.17;;;6.70;;
11113;SDS011;5610;52.154;9.198;2023-11-19T10:31:27;14.30;;;6.10;;
11113;SDS011;5610;52.154;9.198;2023-11-19T10:34:24;15.40;;;5.53;;
11113;SDS011;5610;52.154;9.198;2023-11-19T10:37:10;16.30;;;5.70;;
11113;SDS011;5610;52.154;9.198;2023-11-19T10:40:12;23.80;;;6.23;;
11113;SDS011;5610;52.154;9.198;2023-11-19T10:43:01;15.27;;;6.13;;
11113;SDS011;5610;52.154;9.198;2023-11-19T10:45:47;17.60;;;5.50;;
11113;SDS011;5610;52.154;9.198;2023-11-19T10:48:34;19.03;;;6.10;;
11113;SDS011;5610;52.154;9.198;2023-11-19T10:51:19;22.93;;;6.43;;
11113;SDS011;5610;52.154;9.198;2023-11-19T10:54:07;27.10;;;6.40;;
11113;SDS011;5610;52.154;9.198;2023-11-19T10:56:54;16.37;;;5.90;;
11113;SDS011;5610;52.154;9.198;2023-11-19T10:59:43;18.73;;;5.63;;
11113;SDS011;5610;52.154;9.198;2023-11-19T11:02:30;12.30;;;5.90;;
11113;SDS011;5610;52.154;9.198;2023-11-19T11:05:21;22.77;;;6.47;;
11113;SDS011;5610;52.154;9.198;2023-11-19T11:08:06;21.07;;;7.00;;
11113;SDS011;5610;52.154;9.198;2023-11-19T11:10:53;22.33;;;6.63;;
11113;SDS011;5610;52.154;9.198;2023-11-19T11:13:41;14.33;;;5.93;;
11113;SDS011;5610;52.154;9.198;2023-11-19T11:16:27;22.70;;;6.33;;
11113;SDS011;5610;52.154;9.198;2023-11-19T11:19:15;19.50;;;6.33;;
11113;SDS011;5610;52.154;9.198;2023-11-19T11:22:03;18.20;;;6.30;;
11113;SDS011;5610;52.154;9.198;2023-11-19T11:24:59;20.33;;;6.77;;
11113;SDS011;5610;52.154;9.198;2023-11-19T11:28:04;17.77;;;6.23;;
11113;SDS011;5610;52.154;9.198;2023-11-19T11:31:22;21.67;;;6.97;;
11113;SDS011;5610;52.154;9.198;2023-11-19T11:34:24;23.30;;;6.80;;
11113;SDS011;5610;52.154;9.198;2023-11-19T11:37:27;23.13;;;7.70;;
11113;SDS011;5610;52.154;9.198;2023-11-19T11:40:17;20.27;;;6.40;;
11113;SDS011;5610;52.154;9.198;2023-11-19T11:43:03;23.97;;;6.17;;
11113;SDS011;5610;52.154;9.198;2023-11-19T11:45:48;18.37;;;5.50;;
11113;SDS011;5610;52.154;9.198;2023-11-19T11:48:33;20.60;;;6.60;;
11113;SDS011;5610;52.154;9.198;2023-11-19T11:51:21;22.27;;;5.70;;
11113;SDS011;5610;52.154;9.198;2023-11-19T11:54:46;19.60;;;6.13;;
11113;SDS011;5610;52.154;9.198;2023-11-19T11:57:35;24.60;;;5.90;;
11113;SDS011;5610;52.154;9.198;2023-11-19T12:00:21;21.60;;;6.27;;
11113;SDS011;5610;52.154;9.198;2023-11-19T12:03:08;19.80;;;6.40;;
11113;SDS011;5610;52.154;9.198;2023-11-19T12:05:53;24.07;;;6.90;;
11113;SDS011;5610;52.154;9.198;2023-11-19T12:08:40;16.23;;;5.80;;
11113;SDS011;5610;52.154;9.198;2023-11-19T12:11:26;22.10;;;5.93;;
11113;SDS011;5610;52.154;9.198;2023-11-19T12:14:12;16.63;;;5.93;;
11113;SDS011;5610;52.154;9.198;2023-11-19T12:17:02;18.40;;;5.40;;
11113;SDS011;5610;52.154;9.198;2023-11-19T12:19:48;20.30;;;5.87;;
11113;SDS011;5610;52.154;9.198;2023-11-19T12:22:34;23.93;;;6.60;;
11113;SDS011;5610;52.154;9.198;2023-11-19T12:25:22;22.37;;;8.53;;
11113;SDS011;5610;52.154;9.198;2023-11-19T12:28:11;22.73;;;6.27;;
11113;SDS011;5610;52.154;9.198;2023-11-19T12:31:07;24.13;;;8.70;;
11113;SDS011;5610;52.154;9.198;2023-11-19T12:33:54;26.13;;;6.80;;
11113;SDS011;5610;52.154;9.198;2023-11-19T12:36:39;16.03;;;5.40;;
11113;SDS011;5610;52.154;9.198;2023-11-19T12:39:29;15.63;;;5.83;;
11113;SDS011;5610;52.154;9.198;2023-11-19T12:42:16;15.57;;;5.47;;
11113;SDS011;5610;52.154;9.198;2023-11-19T12:45:01;22.77;;;6.20;;
11113;SDS011;5610;52.154;9.198;2023-11-19T12:47:47;17.57;;;5.73;;
11113;SDS011;5610;52.154;9.198;2023-11-19T12:50:52;21.90;;;6.30;;
11113;SDS011;5610;52.154;9.198;2023-11-19T12:53:46;16.90;;;5.67;;
11113;SDS011;5610;52.154;9.198;2023-11-19T12:56:33;24.17;;;6.03;;
11113;SDS011;5610;52.154;9.198;2023-11-19T12:59:21;16.27;;;5.03;;
11113;SDS011;5610;52.154;9.198;2023-11-19T13:02:07;21.23;;;6.50;;
11113;SDS011;5610;52.154;9.198;2023-11-19T13:04:52;24.10;;;7.00;;
11113;SDS011;5610;52.154;9.198;2023-11-19T13:07:37;23.73;;;6.47;;
11113;SDS011;5610;52.154;9.198;2023-11-19T13:10:22;15.20;;;5.90;;
11113;SDS011;5610;52.154;9.198;2023-11-19T13:13:08;27.03;;;6.60;;
11113;SDS011;5610;52.154;9.198;2023-11-19T13:15:55;17.50;;;6.73;;
11113;SDS011;5610;52.154;9.198;2023-11-19T13:18:47;20.73;;;6.57;;
11113;SDS011;5610;52.154;9.198;2023-11-19T13:21:32;19.00;;;5.40;;
11113;SDS011;5610;52.154;9.198;2023-11-19T13:24:17;17.27;;;6.10;;
11113;SDS011;5610;52.154;9.198;2023-11-19T13:27:02;21.27;;;6.00;;
11113;SDS011;5610;52.154;9.198;2023-11-19T13:29:48;17.53;;;6.13;;
11113;SDS011;5610;52.154;9.198;2023-11-19T13:32:34;20.97;;;6.30;;
11113;SDS011;5610;52.154;9.198;2023-11-19T13:35:20;22.73;;;7.20;;
11113;SDS011;5610;52.154;9.198;2023-11-19T13:38:06;25.30;;;6.27;;
11113;SDS011;5610;52.154;9.198;2023-11-19T13:40:52;26.83;;;7.20;;
11113;SDS011;5610;52.154;9.198;2023-11-19T13:43:37;21.67;;;6.63;;
11113;SDS011;5610;52.154;9.198;2023-11-19T13:46:22;22.77;;;6.50;;
11113;SDS011;5610;52.154;9.198;2023-11-19T13:49:09;16.37;;;6.17;;
11113;SDS011;5610;52.154;9.198;2023-11-19T13:51:55;15.93;;;5.83;;
11113;SDS011;5610;52.154;9.198;2023-11-19T13:54:40;23.63;;;6.60;;
11113;SDS011;5610;52.154;9.198;2023-11-19T13:57:26;25.73;;;7.33;;
11113;SDS011;5610;52.154;9.198;2023-11-19T14:00:11;18.40;;;6.13;;
11113;SDS011;5610;52.154;9.198;2023-11-19T14:02:59;19.27;;;6.10;;
11113;SDS011;5610;52.154;9.198;2023-11-19T14:05:46;21.13;;;5.80;;
11113;SDS011;5610;52.154;9.198;2023-11-19T14:08:33;20.90;;;6.03;;
11113;SDS011;5610;52.154;9.198;2023-11-19T14:11:18;21.47;;;6.00;;
11113;SDS011;5610;52.154;9.198;2023-11-19T14:14:03;20.63;;;6.87;;
11113;SDS011;5610;52.154;9.198;2023-11-19T14:16:48;21.03;;;6.37;;
11113;SDS011;5610;52.154;9.198;2023-11-19T14:19:33;25.33;;;7.90;;
11113;SDS011;5610;52.154;9.198;2023-11-19T14:22:20;21.93;;;6.77;;
11113;SDS011;5610;52.154;9.198;2023-11-19T14:25:05;34.83;;;6.80;;
11113;SDS011;5610;52.154;9.198;2023-11-19T14:27:53;21.40;;;6.80;;
11113;SDS011;5610;52.154;9.198;2023-11-19T14:30:38;21.93;;;7.00;;
11113;SDS011;5610;52.154;9.198;2023-11-19T14:33:25;19.17;;;6.20;;
11113;SDS011;5610;52.154;9.198;2023-11-19T14:36:10;21.03;;;6.10;;
11113;SDS011;5610;52.154;9.198;2023-11-19T14:38:56;21.70;;;6.53;;
11113;SDS011;5610;52.154;9.198;2023-11-19T14:41:42;21.40;;;5.93;;
11113;SDS011;5610;52.154;9.198;2023-11-19T14:44:28;16.73;;;5.73;;
11113;SDS011;5610;52.154;9.198;2023-11-19T14:47:13;20.13;;;5.43;;
11113;SDS011;5610;52.154;9.198;2023-11-19T14:49:59;21.73;;;6.00;;
11113;SDS011;5610;52.154;9.198;2023-11-19T14:52:44;26.50;;;7.43;;
11113;SDS011;5610;52.154;9.198;2023-11-19T14:55:30;18.70;;;5.90;;
11113;SDS011;5610;52.154;9.198;2023-11-19T14:58:16;24.83;;;5.87;;
11113;SDS011;5610;52.154;9.198;2023-11-19T15:01:01;19.33;;;5.97;;
11113;SDS011;5610;52.154;9.198;2023-11-19T15:03:48;14.23;;;6.87;;
11113;SDS011;5610;52.154;9.198;2023-11-19T15:06:33;23.83;;;6.23;;
11113;SDS011;5610;52.154;9.198;2023-11-19T15:09:20;20.87;;;6.47;;
11113;SDS011;5610;52.154;9.198;2023-11-19T15:12:06;16.60;;;5.63;;
11113;SDS011;5610;52.154;9.198;2023-11-19T15:14:52;18.90;;;5.20;;
11113;SDS011;5610;52.154;9.198;2023-11-19T15:17:37;15.67;;;5.40;;
11113;SDS011;5610;52.154;9.198;2023-11-19T15:20:22;21.33;;;7.97;;
11113;SDS011;5610;52.154;9.198;2023-11-19T15:23:07;17.73;;;5.10;;
11113;SDS011;5610;52.154;9.198;2023-11-19T15:25:53;21.40;;;6.40;;
11113;SDS011;5610;52.154;9.198;2023-11-19T15:28:40;19.00;;;6.00;;
11113;SDS011;5610;52.154;9.198;2023-11-19T15:31:25;14.13;;;4.90;;
11113;SDS011;5610;52.154;9.198;2023-11-19T15:34:11;18.10;;;5.20;;
11113;SDS011;5610;52.154;9.198;2023-11-19T15:36:56;16.27;;;5.17;;
11113;SDS011;5610;52.154;9.198;2023-11-19T15:39:41;14.13;;;5.70;;
11113;SDS011;5610;52.154;9.198;2023-11-19T15:42:26;13.03;;;5.30;;
11113;SDS011;5610;52.154;9.198;2023-11-19T15:45:12;16.93;;;5.10;;
11113;SDS011;5610;52.154;9.198;2023-11-19T15:48:00;19.73;;;5.93;;
11113;SDS011;5610;52.154;9.198;2023-11-19T15:50:45;23.30;;;5.60;;
11113;SDS011;5610;52.154;9.198;2023-11-19T15:53:30;13.60;;;5.93;;
11113;SDS011;5610;52.154;9.198;2023-11-19T15:56:15;15.10;;;6.00;;
11113;SDS011;5610;52.154;9.198;2023-11-19T15:59:00;12.07;;;5.10;;
11113;SDS011;5610;52.154;9.198;2023-11-19T16:01:49;17.70;;;5.20;;
11113;SDS011;5610;52.154;9.198;2023-11-19T16:04:35;14.43;;;4.67;;
11113;SDS011;5610;52.154;9.198;2023-11-19T16:07:20;18.70;;;5.40;;
11113;SDS011;5610;52.154;9.198;2023-11-19T16:10:05;15.40;;;5.50;;
11113;SDS011;5610;52.154;9.198;2023-11-19T16:12:53;13.07;;;4.70;;
11113;SDS011;5610;52.154;9.198;2023-11-19T16:15:39;9.80;;;4.53;;
11113;SDS011;5610;52.154;9.198;2023-11-19T16:18:25;20.27;;;5.80;;
11113;SDS011;5610;52.154;9.198;2023-11-19T16:21:11;12.40;;;5.20;;
11113;SDS011;5610;52.154;9.198;2023-11-19T16:23:56;19.23;;;6.70;;
11113;SDS011;5610;52.154;9.198;2023-11-19T16:26:44;18.30;;;5.80;;
11113;SDS011;5610;52.154;9.198;2023-11-19T16:29:30;18.03;;;5.60;;
11113;SDS011;5610;52.154;9.198;2023-11-19T16:32:15;17.80;;;5.50;;
11113;SDS011;5610;52.154;9.198;2023-11-19T16:35:01;15.20;;;5.47;;
11113;SDS011;5610;52.154;9.198;2023-11-19T16:37:46;19.60;;;5.40;;
11113;SDS011;5610;52.154;9.198;2023-11-19T16:40:32;15.70;;;5.10;;
11113;SDS011;5610;52.154;9.198;2023-11-19T16:43:22;19.47;;;5.87;;
11113;SDS011;5610;52.154;9.198;2023-11-19T16:46:11;15.43;;;5.40;;